Time;durP1;ratioP1;P1;durP2;ratioP2;P2;SDS_P1;SDS_P2;PMS_P1;PMS_P2;Temp;Humidity;BMP_temperature;BMP_pressure;BME280_temperature;BME280_humidity;BME280_pressure;Samples;Min_cycle;Max_cycle;Signal;HPM_P1;HPM_P2
2022/06/12 00:01:27;;;;;;;9.88;2.20;;;18.80;99.90;;;;;;12180184;29;20056;-85
2022/06/12 00:07:29;;;;;;;9.93;2.42;;;18.70;99.90;;;;;;12184843;29;20060;-85
2022/06/12 00:13:38;;;;;;;12.35;2.88;;;18.80;99.90;;;;;;12186800;29;20135;-85
2022/06/12 00:19:44;;;;;;;9.73;2.83;;;18.70;99.90;;;;;;12237850;29;20420;-85
2022/06/12 00:25:46;;;;;;;12.00;2.63;;;18.50;99.90;;;;;;12199735;29;20044;-85
2022/06/12 00:32:01;;;;;;;11.32;2.47;;;18.30;99.90;;;;;;12205863;29;20063;-85
2022/06/12 00:38:04;;;;;;;14.82;2.80;;;18.20;99.90;;;;;;12179055;29;20135;-84
2022/06/12 00:44:07;;;;;;;10.80;2.75;;;18.30;99.90;;;;;;12186876;29;20107;-84
2022/06/12 00:50:09;;;;;;;11.80;2.60;;;18.30;99.90;;;;;;12164820;29;20497;-84
2022/06/12 00:56:18;;;;;;;13.18;2.92;;;18.30;99.90;;;;;;12187204;29;20123;-85
2022/06/12 01:02:31;;;;;;;12.98;2.80;;;18.10;99.90;;;;;;12194836;29;20090;-85
2022/06/12 01:08:34;;;;;;;10.88;2.83;;;18.00;99.90;;;;;;12187390;29;20110;-85
2022/06/12 01:14:42;;;;;;;9.33;2.13;;;18.30;99.90;;;;;;12177647;29;20187;-85
2022/06/12 01:20:57;;;;;;;13.13;2.83;;;18.20;99.90;;;;;;12189300;29;20053;-85
2022/06/12 01:27:20;;;;;;;8.73;2.35;;;18.20;99.90;;;;;;12171470;29;20052;-85
2022/06/12 01:33:24;;;;;;;10.27;2.22;;;18.10;99.90;;;;;;12190764;29;20048;-85
2022/06/12 01:39:37;;;;;;;9.38;2.55;;;17.80;99.90;;;;;;12195431;29;20056;-85
2022/06/12 01:46:09;;;;;;;8.18;2.38;;;17.70;99.90;;;;;;12190915;29;20079;-85
2022/06/12 01:52:28;;;;;;;12.82;3.28;;;17.40;99.90;;;;;;12165810;29;20071;-85
2022/06/12 01:59:00;;;;;;;13.77;2.58;;;17.30;99.90;;;;;;12193889;29;20052;-84
2022/06/12 02:05:13;;;;;;;9.65;2.40;;;17.20;99.90;;;;;;12188563;29;20056;-85
2022/06/12 02:18:23;;;;;;;11.68;2.88;;;16.70;99.90;;;;;;12196883;29;20067;-85
2022/06/12 02:24:31;;;;;;;11.18;2.67;;;16.40;99.90;;;;;;12212696;29;20402;-84
2022/06/12 02:30:42;;;;;;;13.00;2.85;;;16.50;99.90;;;;;;12199503;29;20139;-84
2022/06/12 02:36:49;;;;;;;12.68;2.95;;;16.40;99.90;;;;;;12191560;29;20200;-84
2022/06/12 02:42:52;;;;;;;13.55;2.60;;;16.30;99.90;;;;;;12191553;29;20180;-84
2022/06/12 02:48:54;;;;;;;10.47;2.33;;;16.10;99.90;;;;;;12182186;29;20528;-84
2022/06/12 02:55:09;;;;;;;12.32;2.75;;;16.00;99.90;;;;;;12201552;29;20568;-85
2022/06/12 03:01:13;;;;;;;;;;;15.90;99.90;;;;;;12207332;29;20059;-84
2022/06/12 03:07:15;;;;;;;;;;;15.90;99.90;;;;;;12199845;29;20272;-85
2022/06/12 03:13:19;;;;;;;10.98;2.72;;;15.90;99.90;;;;;;12182324;29;19922;-85
2022/06/12 03:19:26;;;;;;;;;;;15.60;99.90;;;;;;12194309;29;20067;-84
2022/06/12 03:25:46;;;;;;;11.90;3.03;;;15.50;99.90;;;;;;12194429;29;19923;-85
2022/06/12 03:32:00;;;;;;;12.10;3.10;;;15.40;99.90;;;;;;12182712;29;20075;-84
2022/06/12 03:38:24;;;;;;;8.75;2.78;;;15.30;99.90;;;;;;12187465;29;20103;-84
2022/06/12 03:44:39;;;;;;;14.47;3.80;;;15.20;99.90;;;;;;12197003;29;20052;-84
2022/06/12 03:50:56;;;;;;;14.02;3.63;;;15.00;99.90;;;;;;12187186;29;20770;-83
2022/06/12 04:03:34;;;;;;;10.07;2.65;;;15.30;99.90;;;;;;12226983;29;20044;-84
2022/06/12 04:09:41;;;;;;;12.77;3.05;;;15.50;99.90;;;;;;12213058;29;20120;-84
2022/06/12 04:15:47;;;;;;;12.00;3.38;;;15.70;99.90;;;;;;12202361;29;20048;-85
2022/06/12 04:21:59;;;;;;;8.75;2.75;;;15.80;99.90;;;;;;12185770;29;20044;-85
2022/06/12 04:28:03;;;;;;;10.48;2.50;;;15.90;99.90;;;;;;12185376;29;20060;-85
2022/06/12 04:34:24;;;;;;;13.80;3.05;;;15.80;99.90;;;;;;12180820;29;20461;-84
2022/06/12 04:40:27;;;;;;;11.75;3.70;;;15.80;99.90;;;;;;12180435;29;20052;-85
2022/06/12 04:46:31;;;;;;;11.23;3.10;;;15.90;99.90;;;;;;12177283;29;20060;-85
2022/06/12 04:52:33;;;;;;;11.13;3.90;;;15.90;99.90;;;;;;12195116;29;20052;-85
2022/06/12 04:58:39;;;;;;;13.43;3.25;;;16.00;99.90;;;;;;12180330;29;20048;-85
2022/06/12 05:04:41;;;;;;;11.90;4.00;;;16.00;99.90;;;;;;12198006;29;20106;-85
2022/06/12 05:10:45;;;;;;;13.05;3.67;;;16.10;99.90;;;;;;12192622;29;20092;-84
2022/06/12 05:16:55;;;;;;;14.73;3.70;;;16.20;99.90;;;;;;12176605;29;20048;-85
2022/06/12 05:22:57;;;;;;;11.98;3.72;;;16.20;99.90;;;;;;12204459;29;20060;-84
2022/06/12 05:29:05;;;;;;;13.68;5.20;;;16.20;99.90;;;;;;12180204;29;21943;-85
2022/06/12 05:35:07;;;;;;;17.77;3.80;;;16.30;99.90;;;;;;12168701;29;20476;-85
2022/06/12 05:41:10;;;;;;;13.32;4.13;;;16.30;99.90;;;;;;12175146;29;20056;-84
2022/06/12 05:47:12;;;;;;;14.52;4.07;;;16.30;99.90;;;;;;12171622;29;20139;-85
2022/06/12 05:53:14;;;;;;;14.15;4.22;;;16.30;99.90;;;;;;12181263;29;20460;-85
2022/06/12 05:59:17;;;;;;;18.38;5.70;;;16.40;99.90;;;;;;12173920;29;20236;-85
2022/06/12 06:05:19;;;;;;;18.85;3.65;;;16.50;99.90;;;;;;12225949;29;20489;-85
2022/06/12 06:11:22;;;;;;;13.63;2.97;;;16.70;99.90;;;;;;12183640;29;20080;-84
2022/06/12 06:17:24;;;;;;;9.48;2.70;;;16.80;99.90;;;;;;12219809;29;20107;-84
2022/06/12 06:23:26;;;;;;;9.57;2.10;;;16.80;99.90;;;;;;12221847;28;20394;-85
2022/06/12 06:29:28;;;;;;;14.18;2.45;;;16.90;99.90;;;;;;12181745;29;20473;-85
2022/06/12 06:35:29;;;;;;;10.55;2.05;;;17.00;99.90;;;;;;12178033;29;20103;-85
2022/06/12 06:41:31;;;;;;;12.88;2.13;;;17.10;99.90;;;;;;12179161;29;20099;-84
2022/06/12 06:47:33;;;;;;;11.75;1.98;;;17.30;99.90;;;;;;12177173;29;20457;-85
2022/06/12 06:53:35;;;;;;;8.90;2.00;;;17.30;99.90;;;;;;12177956;29;20416;-85
2022/06/12 06:59:38;;;;;;;12.95;2.20;;;17.40;99.90;;;;;;12174306;29;20056;-85
2022/06/12 07:05:40;;;;;;;7.47;1.60;;;17.50;99.90;;;;;;12184574;29;20102;-85
2022/06/12 07:11:42;;;;;;;5.88;1.40;;;17.50;99.90;;;;;;12171651;29;20131;-85
2022/06/12 07:17:45;;;;;;;10.13;1.92;;;17.60;99.90;;;;;;12173991;29;20056;-85
2022/06/12 07:23:47;;;;;;;8.77;1.50;;;17.80;99.90;;;;;;12193585;29;20147;-85
2022/06/12 07:29:49;;;;;;;8.77;1.33;;;17.80;99.90;;;;;;12181091;29;20060;-86
2022/06/12 07:35:51;;;;;;;11.50;1.40;;;17.90;99.90;;;;;;12170664;29;20044;-85
2022/06/12 07:41:54;;;;;;;6.55;1.75;;;18.00;99.90;;;;;;12189264;29;20059;-85
2022/06/12 07:47:56;;;;;;;9.32;1.73;;;18.10;99.90;;;;;;12171255;29;20060;-85
2022/06/12 07:53:58;;;;;;;7.10;1.48;;;18.20;99.90;;;;;;12181207;29;20485;-85
2022/06/12 08:00:00;;;;;;;8.73;1.50;;;18.30;99.90;;;;;;12190053;29;20063;-86
2022/06/12 08:06:02;;;;;;;11.57;2.10;;;18.50;99.90;;;;;;12188671;29;20187;-85
2022/06/12 08:12:04;;;;;;;9.93;2.17;;;18.70;99.90;;;;;;12190137;29;20192;-84
2022/06/12 08:18:07;;;;;;;6.97;1.52;;;18.80;99.90;;;;;;12184995;29;20507;-85
2022/06/12 08:24:09;;;;;;;7.80;1.60;;;18.90;99.90;;;;;;12185616;29;20059;-85
2022/06/12 08:30:12;;;;;;;7.85;1.55;;;18.90;99.90;;;;;;12200860;29;20211;-85
2022/06/12 08:36:16;;;;;;;6.43;1.67;;;19.00;99.90;;;;;;12183182;29;20093;-84
2022/06/12 08:42:25;;;;;;;9.10;1.83;;;19.10;99.90;;;;;;12201026;29;20501;-85
2022/06/12 08:48:45;;;;;;;9.70;2.10;;;19.10;99.90;;;;;;12192323;29;20060;-86
2022/06/12 08:55:17;;;;;;;8.90;2.30;;;19.30;99.90;;;;;;12187276;29;20099;-86
2022/06/12 09:01:19;;;;;;;11.10;2.67;;;19.30;99.90;;;;;;12176949;29;20068;-87
2022/06/12 09:07:20;;;;;;;8.52;2.17;;;19.00;99.90;;;;;;12194202;29;20452;-85
2022/06/12 09:13:43;;;;;;;7.00;2.00;;;19.10;99.90;;;;;;12202345;29;20530;-86
2022/06/12 09:19:57;;;;;;;10.57;1.85;;;19.40;99.90;;;;;;12201614;29;20056;-85
2022/06/12 09:26:10;;;;;;;10.38;1.80;;;19.80;99.90;;;;;;12180558;29;20064;-85
2022/06/12 09:32:12;;;;;;;7.07;1.75;;;20.00;99.90;;;;;;12176277;29;20855;-84
2022/06/12 09:38:33;;;;;;;8.43;1.90;;;19.80;99.90;;;;;;12170061;29;20052;-83
2022/06/12 09:44:37;;;;;;;8.45;1.70;;;19.80;99.90;;;;;;12195746;29;20052;-84
2022/06/12 09:51:09;;;;;;;5.60;1.20;;;20.10;99.90;;;;;;12191035;29;20559;-86
2022/06/12 09:57:18;;;;;;;6.25;1.33;;;20.30;99.90;;;;;;12184247;29;20493;-89
2022/06/12 10:03:39;;;;;;;4.13;1.10;;;20.40;99.90;;;;;;12171072;29;20055;-84
2022/06/12 10:09:59;;;;;;;10.15;1.45;;;20.70;99.90;;;;;;12191406;29;20157;-85
2022/06/12 10:16:10;;;;;;;5.32;1.20;;;20.80;99.90;;;;;;12195084;29;20056;-88
2022/06/12 10:22:19;;;;;;;4.25;0.82;;;21.00;99.90;;;;;;12195835;29;20044;-86
2022/06/12 10:28:29;;;;;;;6.03;1.23;;;21.30;99.90;;;;;;12190055;29;20081;-89
2022/06/12 10:34:32;;;;;;;5.72;0.90;;;21.90;99.90;;;;;;12181726;29;20107;-86
2022/06/12 10:40:34;;;;;;;4.78;1.17;;;22.00;99.90;;;;;;12180128;29;20542;-87
2022/06/12 10:46:36;;;;;;;5.57;1.10;;;21.80;99.90;;;;;;12197020;29;20536;-87
2022/06/12 10:52:49;;;;;;;5.57;1.20;;;21.80;99.90;;;;;;12176846;29;20056;-88
2022/06/12 10:59:09;;;;;;;4.40;0.87;;;21.90;99.90;;;;;;12196306;29;20059;-87
2022/06/12 11:05:32;;;;;;;4.28;0.88;;;21.70;99.90;;;;;;12182076;29;20096;-86
2022/06/12 11:11:52;;;;;;;4.72;0.90;;;21.70;99.90;;;;;;12189517;29;20092;-86
2022/06/12 11:18:01;;;;;;;7.35;1.13;;;21.80;99.90;;;;;;12200446;29;20059;-87
2022/06/12 11:24:10;;;;;;;2.65;0.80;;;22.00;99.90;;;;;;12201795;29;20052;-86
2022/06/12 11:30:35;;;;;;;4.60;0.80;;;21.90;99.90;;;;;;12203137;29;20489;-86
2022/06/12 11:37:03;;;;;;;4.00;0.75;;;22.00;99.90;;;;;;12201063;29;20333;-86
2022/06/12 11:43:14;;;;;;;5.43;0.80;;;22.00;99.90;;;;;;12183871;29;20063;-87
2022/06/12 11:49:56;;;;;;;3.08;1.08;;;22.70;99.90;;;;;;12206340;29;20100;-86
2022/06/12 11:56:40;;;;;;;4.10;0.93;;;22.80;99.90;;;;;;12190580;29;20055;-87
2022/06/12 12:03:09;;;;;;;4.65;0.88;;;23.00;99.90;;;;;;12190586;29;20044;-86
2022/06/12 12:09:27;;;;;;;3.65;0.80;;;22.60;99.90;;;;;;12200201;29;20147;-86
2022/06/12 12:15:42;;;;;;;2.45;0.77;;;22.40;99.90;;;;;;12198454;29;20104;-86
2022/06/12 12:21:52;;;;;;;4.93;1.05;;;22.20;99.90;;;;;;12183492;29;20040;-86
2022/06/12 12:27:58;;;;;;;7.28;1.20;;;22.50;99.90;;;;;;12189350;29;20074;-88
2022/06/12 12:34:03;;;;;;;5.05;1.08;;;22.60;99.90;;;;;;12184455;29;20236;-89
2022/06/12 12:46:40;;;;;;;5.97;1.25;;;23.60;99.90;;;;;;12196953;29;20519;-86
2022/06/12 12:52:56;;;;;;;5.13;1.20;;;23.10;99.90;;;;;;12178596;29;20052;-86
2022/06/12 12:59:04;;;;;;;6.60;0.85;;;23.00;99.90;;;;;;12180509;29;20180;-86
2022/06/12 13:05:24;;;;;;;5.35;1.13;;;22.90;99.90;;;;;;12177072;29;20579;-85
2022/06/12 13:12:01;;;;;;;7.95;1.17;;;22.80;99.90;;;;;;12202972;29;20123;-88
2022/06/12 13:18:31;;;;;;;4.88;1.00;;;22.90;99.90;;;;;;12138839;29;20187;-85
2022/06/12 13:25:07;;;;;;;7.05;1.08;;;23.40;99.90;;;;;;12193036;29;20530;-86
2022/06/12 13:31:20;;;;;;;5.57;0.90;;;23.40;99.90;;;;;;12201980;29;20055;-86
2022/06/12 13:37:22;;;;;;;;;;;23.30;99.90;;;;;;12185373;29;20061;-86
2022/06/12 13:43:42;;;;;;;3.75;1.08;;;23.30;99.90;;;;;;12189959;29;19966;-85
2022/06/12 13:49:52;;;;;;;6.25;1.15;;;23.60;99.90;;;;;;12165664;29;20136;-85
2022/06/12 13:56:01;;;;;;;6.45;1.40;;;23.40;99.90;;;;;;12188570;29;20051;-84
2022/06/12 14:02:25;;;;;;;4.53;1.00;;;23.20;99.90;;;;;;12179406;29;20079;-87
2022/06/12 14:08:33;;;;;;;6.40;1.40;;;23.40;99.90;;;;;;12175943;29;20071;-86
2022/06/12 14:14:42;;;;;;;6.93;1.50;;;23.40;99.90;;;;;;12193308;29;20585;-86
2022/06/12 14:20:44;;;;;;;5.47;1.10;;;23.30;99.90;;;;;;12167355;29;20052;-86
2022/06/12 14:26:49;;;;;;;5.05;1.10;;;23.20;99.90;;;;;;12187962;29;20087;-86
2022/06/12 14:32:50;;;;;;;2.53;0.90;;;23.10;99.90;;;;;;12210408;29;20052;-87
2022/06/12 14:38:52;;;;;;;5.72;1.20;;;23.00;99.90;;;;;;12204449;29;20056;-85
2022/06/12 14:44:58;;;;;;;7.50;1.60;;;23.10;99.90;;;;;;12180232;29;20136;-85
2022/06/12 14:51:00;;;;;;;7.65;1.60;;;23.20;99.90;;;;;;12190860;29;20158;-84
2022/06/12 14:57:05;;;;;;;7.75;1.30;;;23.20;99.90;;;;;;12182726;29;20115;-85
2022/06/12 15:03:13;;;;;;;5.65;1.77;;;22.90;99.90;;;;;;12187813;29;20575;-86
2022/06/12 15:09:15;;;;;;;8.20;1.45;;;22.60;99.90;;;;;;12189090;29;20076;-85
2022/06/12 15:15:21;;;;;;;4.35;1.48;;;22.50;99.90;;;;;;12183807;29;20056;-85
2022/06/12 15:21:35;;;;;;;6.22;1.40;;;22.70;99.90;;;;;;12204261;29;20056;-86
2022/06/12 15:34:00;;;;;;;6.40;1.60;;;23.00;99.90;;;;;;12201659;29;20056;-85
2022/06/12 15:40:03;;;;;;;10.95;3.63;;;23.10;99.90;;;;;;12187136;29;20080;-86
2022/06/12 15:46:06;;;;;;;29.58;18.90;;;23.20;99.90;;;;;;12188003;29;20064;-85
2022/06/12 15:52:09;;;;;;;10.88;3.65;;;23.00;99.90;;;;;;12206843;29;20064;-85
2022/06/12 15:58:11;;;;;;;19.75;9.45;;;22.70;99.90;;;;;;12186389;29;20119;-85
2022/06/12 16:04:14;;;;;;;6.22;1.80;;;22.80;99.90;;;;;;12181638;29;20111;-86
2022/06/12 16:10:16;;;;;;;7.25;1.70;;;22.80;99.90;;;;;;12198485;29;20196;-86
2022/06/12 16:16:19;;;;;;;8.10;2.15;;;22.60;99.90;;;;;;12182390;29;20056;-86
2022/06/12 16:22:21;;;;;;;8.07;1.73;;;22.90;99.90;;;;;;12192220;29;20498;-86
2022/06/12 16:28:24;;;;;;;8.02;2.22;;;23.00;99.90;;;;;;12183782;29;20191;-85
2022/06/12 16:34:26;;;;;;;10.53;3.63;;;22.90;99.90;;;;;;12190276;29;20131;-85
2022/06/12 16:40:28;;;;;;;5.72;1.60;;;22.70;99.90;;;;;;12195167;29;20048;-86
2022/06/12 16:46:30;;;;;;;6.75;1.60;;;22.60;99.90;;;;;;12186134;29;20061;-85
2022/06/12 16:52:32;;;;;;;5.40;1.48;;;22.50;99.90;;;;;;12192900;29;20461;-86
2022/06/12 16:58:34;;;;;;;7.05;1.65;;;22.40;99.90;;;;;;12198916;29;20459;-86
2022/06/12 17:04:39;;;;;;;8.05;1.80;;;22.20;99.90;;;;;;12193093;29;20044;-83
2022/06/12 17:10:42;;;;;;;7.65;1.55;;;22.00;99.90;;;;;;12172549;29;20143;-85
2022/06/12 17:16:44;;;;;;;7.57;1.63;;;21.90;99.90;;;;;;12184716;29;20138;-79
2022/06/12 17:22:47;;;;;;;4.82;1.70;;;21.70;99.90;;;;;;12191415;29;20146;-80
2022/06/12 17:28:49;;;;;;;7.15;1.85;;;21.50;99.90;;;;;;12191220;29;20195;-79
2022/06/12 17:34:55;;;;;;;6.85;1.80;;;21.60;99.90;;;;;;12172952;29;20126;-80
2022/06/12 17:40:57;;;;;;;4.78;1.65;;;21.70;99.90;;;;;;12193196;29;20107;-80
2022/06/12 17:46:59;;;;;;;9.20;2.00;;;21.70;99.90;;;;;;12190968;29;20198;-79
2022/06/12 17:53:02;;;;;;;7.22;1.73;;;21.70;99.90;;;;;;12194070;29;20516;-84
2022/06/12 17:59:05;;;;;;;8.10;1.98;;;21.40;99.90;;;;;;12179441;29;20095;-85
2022/06/12 18:05:08;;;;;;;5.13;1.85;;;21.10;99.90;;;;;;12203737;29;20052;-85
2022/06/12 18:11:12;;;;;;;6.93;1.70;;;21.20;99.90;;;;;;12190955;29;20473;-85
2022/06/12 18:23:35;;;;;;;7.10;1.55;;;20.90;99.90;;;;;;12204565;29;20516;-84
2022/06/12 18:29:37;;;;;;;8.20;2.38;;;20.90;99.90;;;;;;12179142;29;20404;-85
2022/06/12 18:35:44;;;;;;;7.30;1.80;;;20.70;99.90;;;;;;12193989;29;20571;-85
2022/06/12 18:41:46;;;;;;;6.60;1.88;;;20.50;99.90;;;;;;12193003;29;20045;-85
2022/06/12 18:47:48;;;;;;;5.00;1.57;;;20.30;99.90;;;;;;12183836;29;20056;-83
2022/06/12 18:53:50;;;;;;;7.22;1.88;;;20.20;99.90;;;;;;12185806;29;20040;-85
2022/06/12 18:59:52;;;;;;;3.60;1.30;;;20.10;99.90;;;;;;12182746;29;20072;-81
2022/06/12 19:05:56;;;;;;;7.38;1.60;;;20.00;99.90;;;;;;12198312;29;20135;-84
2022/06/12 19:11:58;;;;;;;7.18;1.95;;;20.00;99.90;;;;;;12185350;29;20135;-84
2022/06/12 19:18:08;;;;;;;4.60;1.48;;;19.70;99.90;;;;;;12184808;29;20140;-85
2022/06/12 19:24:11;;;;;;;5.93;1.60;;;19.80;99.90;;;;;;12204795;29;20060;-85
2022/06/12 19:30:17;;;;;;;6.43;1.50;;;19.60;99.90;;;;;;12212263;29;20052;-85
2022/06/12 19:36:20;;;;;;;6.15;1.77;;;19.70;99.90;;;;;;12189660;29;20059;-85
2022/06/12 19:42:27;;;;;;;7.22;2.40;;;19.60;99.90;;;;;;12196592;29;20171;-85
2022/06/12 19:48:28;;;;;;;4.40;1.58;;;19.40;99.90;;;;;;12205525;29;20139;-85
2022/06/12 19:54:30;;;;;;;7.45;1.77;;;19.40;99.90;;;;;;12223034;29;20069;-86
2022/06/12 20:00:32;;;;;;;7.75;1.30;;;19.10;99.90;;;;;;12216644;29;20151;-85
2022/06/12 20:12:55;;;;;;;6.07;1.60;;;19.10;99.90;;;;;;12207536;29;20056;-85
2022/06/12 20:18:56;;;;;;;6.40;1.95;;;19.00;99.90;;;;;;12188933;29;20130;-85
2022/06/12 20:24:58;;;;;;;7.07;1.67;;;18.80;99.90;;;;;;12193071;29;20151;-85
2022/06/12 20:31:02;;;;;;;7.30;1.58;;;18.80;99.90;;;;;;12204181;29;20056;-85
2022/06/12 20:37:06;;;;;;;7.50;1.45;;;18.70;99.90;;;;;;12183624;29;20510;-85
2022/06/12 20:43:07;;;;;;;6.37;1.83;;;18.40;99.90;;;;;;12182133;29;20060;-85
2022/06/12 20:49:10;;;;;;;6.63;1.23;;;18.30;99.90;;;;;;12185783;29;20060;-85
2022/06/12 20:55:13;;;;;;;5.22;1.60;;;18.40;99.90;;;;;;12180253;29;20059;-85
2022/06/12 21:01:15;;;;;;;5.43;1.77;;;18.20;99.90;;;;;;12199551;29;20059;-86
2022/06/12 21:07:17;;;;;;;8.05;1.77;;;18.10;99.90;;;;;;12177863;29;20067;-84
2022/06/12 21:13:19;;;;;;;9.75;2.08;;;18.00;99.90;;;;;;12181442;29;20044;-85
2022/06/12 21:19:20;;;;;;;7.07;1.90;;;17.90;99.90;;;;;;12190532;29;20052;-85
2022/06/12 21:25:27;;;;;;;8.43;2.08;;;17.90;99.90;;;;;;12198401;29;20140;-85
2022/06/12 21:31:29;;;;;;;6.78;1.73;;;17.90;99.90;;;;;;12195614;29;20068;-84
2022/06/12 21:37:30;;;;;;;8.45;2.08;;;17.90;99.90;;;;;;12177678;29;20524;-84
2022/06/12 21:43:33;;;;;;;7.85;1.73;;;17.70;99.90;;;;;;12199033;29;20139;-84
2022/06/12 21:49:35;;;;;;;8.83;1.70;;;17.80;99.90;;;;;;12173502;29;20496;-85
2022/06/12 21:55:37;;;;;;;6.70;1.42;;;17.80;99.90;;;;;;12187478;29;20048;-84
2022/06/12 22:01:39;;;;;;;7.28;1.77;;;17.70;99.90;;;;;;12184913;29;20048;-85
2022/06/12 22:07:41;;;;;;;11.07;2.05;;;17.60;99.90;;;;;;12218139;29;20052;-85
2022/06/12 22:13:43;;;;;;;5.15;1.60;;;17.50;99.90;;;;;;12181450;29;20052;-85
2022/06/12 22:19:45;;;;;;;5.85;1.95;;;17.50;99.90;;;;;;12182337;29;20048;-84
2022/06/12 22:25:48;;;;;;;5.10;1.50;;;17.50;99.90;;;;;;12178953;29;20056;-84
2022/06/12 22:31:50;;;;;;;6.47;1.70;;;17.30;99.90;;;;;;12186322;29;20098;-85
2022/06/12 22:37:51;;;;;;;8.10;1.90;;;17.20;99.90;;;;;;12180315;29;20139;-84
2022/06/12 22:43:53;;;;;;;7.35;2.05;;;17.10;99.90;;;;;;12179356;29;20052;-85
2022/06/12 22:49:55;;;;;;;10.40;2.30;;;17.20;99.90;;;;;;12187468;29;20060;-84
2022/06/12 22:55:57;;;;;;;7.63;1.95;;;17.00;99.90;;;;;;12187564;29;20766;-85
2022/06/12 23:01:59;;;;;;;6.60;2.13;;;17.10;99.90;;;;;;12189859;29;20576;-85
2022/06/12 23:08:01;;;;;;;7.10;1.98;;;17.10;99.90;;;;;;12189677;29;20144;-84
2022/06/12 23:14:03;;;;;;;7.65;2.08;;;17.20;99.90;;;;;;12199726;29;20143;-85
2022/06/12 23:20:06;;;;;;;8.55;2.45;;;17.20;99.90;;;;;;12191558;29;20062;-85
2022/06/12 23:26:10;;;;;;;8.40;2.45;;;17.00;99.90;;;;;;12207861;29;20520;-84
2022/06/12 23:32:12;;;;;;;10.30;2.20;;;17.10;99.90;;;;;;12199164;29;20580;-85
2022/06/12 23:38:15;;;;;;;10.20;2.70;;;17.00;99.90;;;;;;12189721;29;20060;-84
2022/06/12 23:44:17;;;;;;;9.57;2.70;;;16.80;99.90;;;;;;12203813;29;20071;-85
2022/06/12 23:50:20;;;;;;;10.68;2.83;;;16.70;99.90;;;;;;12186528;29;20055;-85
2022/06/12 23:56:25;;;;;;;7.85;2.88;;;16.70;99.90;;;;;;12184566;29;20143;-85
